2GOOD EGPH-EGPH

Flight info

Callsign 2GOOD
Flight time 0h 44m
Altitude 1100
Route VFR CCTS
Aircraft DA62/L-DFGLORVY/C

Departure

Time 2026-04-25 20:27
Airport Edinburgh Airport (EGPH)

Arrival

Time 2026-04-25 21:11
Airport Edinburgh Airport (EGPH)
Time Latitude Longitude Altitude Speed Heading
2026-04-25 19:57 55.94871 -3.34309 111 ft 0 kts 178°
2026-04-25 20:16 55.94869 -3.34310 111 ft 2 kts 190°
2026-04-25 20:16 55.94864 -3.34345 111 ft 4 kts 291°
2026-04-25 20:16 55.94874 -3.34398 111 ft 6 kts 269°
2026-04-25 20:16 55.94851 -3.34484 111 ft 7 kts 234°
2026-04-25 20:17 55.94848 -3.34494 111 ft 0 kts 244°
2026-04-25 20:17 55.94845 -3.34502 111 ft 4 kts 239°
2026-04-25 20:17 55.94813 -3.34594 111 ft 13 kts 238°
2026-04-25 20:18 55.94768 -3.34728 111 ft 9 kts 243°
2026-04-25 20:18 55.94783 -3.34825 111 ft 10 kts 316°
2026-04-25 20:18 55.94821 -3.34936 111 ft 12 kts 296°
2026-04-25 20:18 55.94866 -3.35080 111 ft 16 kts 298°
2026-04-25 20:19 55.94926 -3.35273 111 ft 18 kts 298°
2026-04-25 20:19 55.94983 -3.35463 111 ft 18 kts 297°
2026-04-25 20:19 55.95045 -3.35659 111 ft 18 kts 298°
2026-04-25 20:19 55.95049 -3.35796 111 ft 10 kts 255°
2026-04-25 20:20 55.95073 -3.35927 111 ft 14 kts 297°
2026-04-25 20:20 55.95111 -3.36095 111 ft 16 kts 289°
2026-04-25 20:20 55.95137 -3.36265 111 ft 12 kts 265°
2026-04-25 20:20 55.95097 -3.36391 111 ft 12 kts 239°
2026-04-25 20:21 55.95049 -3.36531 111 ft 14 kts 238°
2026-04-25 20:21 55.94997 -3.36686 111 ft 15 kts 239°
2026-04-25 20:21 55.94933 -3.36873 111 ft 20 kts 239°
2026-04-25 20:21 55.94862 -3.37086 111 ft 20 kts 238°
2026-04-25 20:22 55.94788 -3.37299 110 ft 20 kts 239°
2026-04-25 20:22 55.94741 -3.37444 111 ft 20 kts 238°
2026-04-25 20:22 55.94644 -3.37726 111 ft 19 kts 238°
2026-04-25 20:22 55.94595 -3.37874 111 ft 11 kts 240°
2026-04-25 20:23 55.94589 -3.37928 111 ft 4 kts 281°
2026-04-25 20:23 55.94592 -3.37942 111 ft 2 kts 306°
2026-04-25 20:23 55.94594 -3.37947 110 ft 0 kts 313°
2026-04-25 20:23 55.94603 -3.37960 110 ft 5 kts 326°
2026-04-25 20:24 55.94628 -3.37988 110 ft 0 kts 326°
2026-04-25 20:24 55.94638 -3.37999 110 ft 3 kts 327°
2026-04-25 20:24 55.94662 -3.38026 110 ft 0 kts 326°
2026-04-25 20:25 55.94665 -3.38029 109 ft 4 kts 327°
2026-04-25 20:25 55.94705 -3.38072 109 ft 6 kts 333°
2026-04-25 20:25 55.94727 -3.38056 109 ft 0 kts 57°
2026-04-25 20:26 55.94727 -3.38055 109 ft 2 kts 59°
2026-04-25 20:26 55.94816 -3.37792 109 ft 55 kts 59°
2026-04-25 20:26 55.95082 -3.37025 257 ft 75 kts 56°
2026-04-25 20:27 55.95371 -3.36279 561 ft 78 kts 57°
2026-04-25 20:27 55.95747 -3.35579 894 ft 86 kts 27°
2026-04-25 20:27 55.96451 -3.35761 977 ft 127 kts 335°
2026-04-25 20:27 55.97252 -3.36574 992 ft 134 kts 336°
2026-04-25 20:28 55.97893 -3.37801 973 ft 145 kts 290°
2026-04-25 20:28 55.97779 -3.39546 988 ft 146 kts 241°
2026-04-25 20:28 55.97267 -3.41149 990 ft 150 kts 239°
2026-04-25 20:28 55.96721 -3.42738 988 ft 150 kts 240°
2026-04-25 20:29 55.96213 -3.44370 990 ft 151 kts 239°
2026-04-25 20:29 55.95667 -3.45954 984 ft 148 kts 239°
2026-04-25 20:29 55.95177 -3.47496 987 ft 139 kts 239°
2026-04-25 20:29 55.94598 -3.48722 892 ft 120 kts 207°
2026-04-25 20:30 55.93861 -3.48886 880 ft 104 kts 159°
2026-04-25 20:30 55.93185 -3.48460 867 ft 105 kts 156°
2026-04-25 20:30 55.92488 -3.48061 877 ft 104 kts 155°
2026-04-25 20:30 55.91947 -3.47363 815 ft 96 kts 109°
2026-04-25 20:31 55.92067 -3.46306 897 ft 85 kts 62°
2026-04-25 20:31 55.92338 -3.45328 959 ft 98 kts 63°
2026-04-25 20:31 55.92696 -3.44154 840 ft 115 kts 61°
2026-04-25 20:31 55.93044 -3.43073 674 ft 86 kts 60°
2026-04-25 20:32 55.93312 -3.42276 564 ft 69 kts 58°
2026-04-25 20:32 55.93576 -3.41474 475 ft 76 kts 60°
2026-04-25 20:32 55.93828 -3.40678 355 ft 72 kts 58°
2026-04-25 20:32 55.94101 -3.39928 267 ft 76 kts 63°
2026-04-25 20:33 55.94340 -3.39120 512 ft 71 kts 62°
2026-04-25 20:33 55.94594 -3.38385 746 ft 72 kts 57°
2026-04-25 20:33 55.95043 -3.37859 911 ft 94 kts 13°
2026-04-25 20:33 55.95502 -3.37931 894 ft 104 kts 350°
2026-04-25 20:34 55.96355 -3.38922 940 ft 118 kts 321°
2026-04-25 20:34 55.96635 -3.40297 1039 ft 121 kts 265°
2026-04-25 20:34 55.96263 -3.41705 1004 ft 129 kts 239°
2026-04-25 20:34 55.95802 -3.43126 1007 ft 135 kts 239°
2026-04-25 20:35 55.95328 -3.44602 995 ft 138 kts 240°
2026-04-25 20:35 55.94839 -3.46093 996 ft 141 kts 238°
2026-04-25 20:35 55.94576 -3.47727 988 ft 138 kts 282°
2026-04-25 20:35 55.95103 -3.48976 987 ft 124 kts 342°
2026-04-25 20:36 55.95888 -3.48789 985 ft 117 kts 44°
2026-04-25 20:36 55.96112 -3.47498 994 ft 117 kts 103°
2026-04-25 20:36 55.95508 -3.46520 989 ft 128 kts 164°
2026-04-25 20:36 55.94664 -3.47003 994 ft 133 kts 226°
2026-04-25 20:37 55.94161 -3.48419 1001 ft 136 kts 238°
2026-04-25 20:37 55.93680 -3.49909 996 ft 141 kts 240°
2026-04-25 20:37 55.93203 -3.51445 983 ft 138 kts 242°
2026-04-25 20:37 55.92674 -3.52851 959 ft 141 kts 221°
2026-04-25 20:38 55.91808 -3.53463 997 ft 133 kts 169°
2026-04-25 20:38 55.91014 -3.52736 978 ft 128 kts 141°
2026-04-25 20:38 55.90841 -3.51491 1094 ft 104 kts 57°
2026-04-25 20:38 55.91441 -3.50680 1115 ft 115 kts 29°
2026-04-25 20:39 55.92176 -3.50041 1060 ft 122 kts 31°
2026-04-25 20:39 55.92850 -3.49285 1288 ft 102 kts 46°
2026-04-25 20:39 55.93447 -3.48482 1066 ft 112 kts 34°
2026-04-25 20:39 55.93666 -3.48261 973 ft 113 kts 30°
2026-04-25 20:40 55.94735 -3.47513 753 ft 100 kts 12°
2026-04-25 20:40 55.95431 -3.47605 546 ft 99 kts 358°
2026-04-25 20:40 55.95987 -3.48322 393 ft 107 kts 305°
2026-04-25 20:40 55.96004 -3.49589 394 ft 100 kts 250°
2026-04-25 20:41 55.95538 -3.50578 581 ft 119 kts 192°
2026-04-25 20:41 55.94758 -3.50549 979 ft 111 kts 161°
2026-04-25 20:41 55.93962 -3.50171 980 ft 123 kts 154°
2026-04-25 20:41 55.93153 -3.49638 1076 ft 123 kts 156°
2026-04-25 20:42 55.92382 -3.49001 972 ft 119 kts 133°
2026-04-25 20:42 55.91878 -3.47935 788 ft 108 kts 124°
2026-04-25 20:42 55.91605 -3.46845 681 ft 88 kts 75°
2026-04-25 20:42 55.91911 -3.46058 797 ft 73 kts 58°
2026-04-25 20:43 55.92205 -3.45307 940 ft 69 kts 57°
2026-04-25 20:43 55.92467 -3.44604 886 ft 66 kts 57°
2026-04-25 20:43 55.92739 -3.43834 791 ft 76 kts 60°
2026-04-25 20:43 55.93023 -3.43026 710 ft 81 kts 59°
2026-04-25 20:44 55.93324 -3.42177 571 ft 78 kts 56°
2026-04-25 20:44 55.93607 -3.41365 443 ft 77 kts 55°
2026-04-25 20:44 55.93866 -3.40552 406 ft 74 kts 57°
2026-04-25 20:44 55.94147 -3.39775 320 ft 79 kts 57°
2026-04-25 20:45 55.94413 -3.38976 184 ft 74 kts 58°
2026-04-25 20:45 55.94657 -3.38271 109 ft 52 kts 57°
2026-04-25 20:45 55.94891 -3.37591 202 ft 74 kts 56°
2026-04-25 20:45 55.95146 -3.36803 539 ft 70 kts 61°
2026-04-25 20:46 55.95568 -3.36392 779 ft 88 kts 352°
2026-04-25 20:46 55.96130 -3.36933 1078 ft 96 kts 335°
2026-04-25 20:46 55.96693 -3.37725 1195 ft 114 kts 308°
2026-04-25 20:46 55.96738 -3.39101 1199 ft 118 kts 240°
2026-04-25 20:47 55.96340 -3.40412 1194 ft 121 kts 239°
2026-04-25 20:47 55.95920 -3.41727 1197 ft 123 kts 239°
2026-04-25 20:47 55.95496 -3.43080 1196 ft 127 kts 240°
2026-04-25 20:47 55.95067 -3.44465 1196 ft 128 kts 240°
2026-04-25 20:48 55.94628 -3.45856 1199 ft 129 kts 238°
2026-04-25 20:48 55.94225 -3.47277 1186 ft 128 kts 255°
2026-04-25 20:48 55.94296 -3.48802 1180 ft 123 kts 299°
2026-04-25 20:48 55.94930 -3.49585 1181 ft 109 kts
2026-04-25 20:49 55.95363 -3.49286 1189 ft 101 kts 50°
2026-04-25 20:49 55.95253 -3.47825 1196 ft 107 kts 141°
2026-04-25 20:49 55.94494 -3.47861 1192 ft 123 kts 208°
2026-04-25 20:49 55.94124 -3.49198 1186 ft 126 kts 278°
2026-04-25 20:50 55.94579 -3.50376 1185 ft 115 kts 345°
2026-04-25 20:50 55.95279 -3.50141 1182 ft 104 kts 50°
2026-04-25 20:50 55.95419 -3.49368 1190 ft 103 kts 95°
2026-04-25 20:50 55.94655 -3.48423 1191 ft 119 kts 185°
2026-04-25 20:51 55.94044 -3.49366 1187 ft 124 kts 253°
2026-04-25 20:51 55.94226 -3.50782 1187 ft 121 kts 318°
2026-04-25 20:51 55.94969 -3.51119 1187 ft 110 kts 25°
2026-04-25 20:51 55.95372 -3.50117 1185 ft 105 kts 89°
2026-04-25 20:52 55.94938 -3.49101 1182 ft 115 kts 157°
2026-04-25 20:52 55.94669 -3.49041 1181 ft 118 kts 179°
2026-04-25 20:52 55.93992 -3.50883 1183 ft 125 kts 293°
2026-04-25 20:52 55.94252 -3.52329 1177 ft 127 kts 262°
2026-04-25 20:53 55.94031 -3.53270 1188 ft 124 kts 239°
2026-04-25 20:53 55.93482 -3.55072 1192 ft 121 kts 240°
2026-04-25 20:53 55.93084 -3.56396 1187 ft 121 kts 240°
2026-04-25 20:53 55.92687 -3.57702 1184 ft 119 kts 241°
2026-04-25 20:54 55.92295 -3.58996 1187 ft 118 kts 239°
2026-04-25 20:54 55.92044 -3.59857 1189 ft 118 kts 241°
2026-04-25 20:54 55.91512 -3.60954 1132 ft 121 kts 202°
2026-04-25 20:54 55.90888 -3.61734 1195 ft 116 kts 251°
2026-04-25 20:55 55.90969 -3.63123 1181 ft 113 kts 306°
2026-04-25 20:55 55.91629 -3.63644 1162 ft 104 kts 19°
2026-04-25 20:55 55.92018 -3.62777 1185 ft 94 kts 89°
2026-04-25 20:55 55.91587 -3.61944 1184 ft 106 kts 165°
2026-04-25 20:56 55.90928 -3.62489 1181 ft 114 kts 239°
2026-04-25 20:56 55.90988 -3.63823 1185 ft 114 kts 314°
2026-04-25 20:56 55.91662 -3.64210 1191 ft 103 kts 26°
2026-04-25 20:56 55.92004 -3.63269 1186 ft 95 kts 96°
2026-04-25 20:57 55.91519 -3.62516 1187 ft 105 kts 172°
2026-04-25 20:57 55.90923 -3.63194 1192 ft 112 kts 248°
2026-04-25 20:57 55.91026 -3.64550 1178 ft 114 kts 314°
2026-04-25 20:57 55.91708 -3.64830 1187 ft 104 kts 30°
2026-04-25 20:58 55.92016 -3.63791 1179 ft 99 kts 101°
2026-04-25 20:58 55.91518 -3.63055 1186 ft 101 kts 173°
2026-04-25 20:58 55.90978 -3.63788 1197 ft 112 kts 255°
2026-04-25 20:58 55.91210 -3.65041 1183 ft 111 kts 329°
2026-04-25 20:59 55.91921 -3.65178 1179 ft 105 kts 33°
2026-04-25 20:59 55.92239 -3.64131 1144 ft 103 kts 89°
2026-04-25 20:59 55.92190 -3.62849 1073 ft 104 kts 93°
2026-04-25 20:59 55.92138 -3.61607 1082 ft 102 kts 90°
2026-04-25 21:00 55.92097 -3.60300 990 ft 109 kts 92°
2026-04-25 21:00 55.92067 -3.59389 994 ft 109 kts 92°
2026-04-25 21:00 55.91826 -3.56044 994 ft 120 kts 92°
2026-04-25 21:01 55.91737 -3.54620 1114 ft 112 kts 91°
2026-04-25 21:01 55.91700 -3.53265 1216 ft 109 kts 93°
2026-04-25 21:01 55.91671 -3.51844 1184 ft 115 kts 89°
2026-04-25 21:01 55.91674 -3.50407 1203 ft 117 kts 88°
2026-04-25 21:02 55.91715 -3.48936 1148 ft 120 kts 84°
2026-04-25 21:02 55.91798 -3.47481 1225 ft 114 kts 84°
2026-04-25 21:02 55.92075 -3.46090 1092 ft 126 kts 62°
2026-04-25 21:02 55.92485 -3.44755 920 ft 117 kts 60°
2026-04-25 21:03 55.92871 -3.43575 761 ft 101 kts 59°
2026-04-25 21:03 55.93194 -3.42623 639 ft 82 kts 59°
2026-04-25 21:03 55.93473 -3.41777 524 ft 76 kts 60°
2026-04-25 21:03 55.93738 -3.40996 422 ft 78 kts 58°
2026-04-25 21:04 55.94019 -3.40161 338 ft 77 kts 60°
2026-04-25 21:04 55.94292 -3.39369 229 ft 74 kts 59°
2026-04-25 21:04 55.94558 -3.38559 133 ft 77 kts 58°
2026-04-25 21:04 55.94801 -3.37837 119 ft 76 kts 59°
2026-04-25 21:05 55.95070 -3.37035 452 ft 74 kts 59°
2026-04-25 21:05 55.95400 -3.36353 789 ft 75 kts 28°
2026-04-25 21:05 55.95952 -3.36321 1075 ft 93 kts 335°
2026-04-25 21:05 55.96500 -3.37034 1191 ft 102 kts 333°
2026-04-25 21:06 55.97048 -3.37952 1195 ft 118 kts 292°
2026-04-25 21:06 55.96941 -3.39383 1201 ft 123 kts 239°
2026-04-25 21:06 55.96541 -3.40807 1193 ft 133 kts 241°
2026-04-25 21:06 55.96251 -3.41778 1194 ft 134 kts 241°
2026-04-25 21:07 55.95660 -3.43785 1196 ft 139 kts 240°
2026-04-25 21:07 55.95204 -3.45347 1132 ft 143 kts 243°
2026-04-25 21:07 55.94758 -3.46838 953 ft 124 kts 243°
2026-04-25 21:07 55.94384 -3.48107 991 ft 117 kts 240°
2026-04-25 21:08 55.93764 -3.48984 989 ft 109 kts 198°
2026-04-25 21:08 55.93108 -3.49183 960 ft 83 kts 148°
2026-04-25 21:08 55.92548 -3.48803 999 ft 93 kts 153°
2026-04-25 21:08 55.91975 -3.48328 977 ft 87 kts 126°
2026-04-25 21:09 55.92000 -3.46451 981 ft 82 kts 60°
2026-04-25 21:09 55.92259 -3.45548 965 ft 82 kts 61°
2026-04-25 21:09 55.92539 -3.44646 894 ft 86 kts 62°
2026-04-25 21:10 55.92845 -3.43720 783 ft 88 kts 58°
2026-04-25 21:10 55.93145 -3.42769 651 ft 85 kts 59°
2026-04-25 21:10 55.93448 -3.41861 535 ft 87 kts 60°
2026-04-25 21:10 55.93753 -3.40939 414 ft 86 kts 59°
2026-04-25 21:11 55.94070 -3.40011 325 ft 88 kts 59°
2026-04-25 21:11 55.94381 -3.39085 216 ft 86 kts 59°
2026-04-25 21:11 55.94663 -3.38245 109 ft 64 kts 57°
2026-04-25 21:11 55.94836 -3.37731 109 ft 38 kts 58°
2026-04-25 21:12 55.94973 -3.37333 107 ft 37 kts 58°
2026-04-25 21:12 55.95101 -3.36954 109 ft 35 kts 58°
2026-04-25 21:12 55.95210 -3.36631 108 ft 23 kts 60°
2026-04-25 21:12 55.95251 -3.36509 106 ft 9 kts 60°
2026-04-25 21:13 55.95227 -3.36387 108 ft 7 kts 149°
2026-04-25 21:13 55.95197 -3.36355 110 ft 4 kts 144°
2026-04-25 21:13 55.95173 -3.36330 110 ft 5 kts 146°
2026-04-25 21:13 55.95172 -3.36328 110 ft 0 kts 147°
2026-04-25 21:14 55.95171 -3.36327 110 ft 0 kts 147°
2026-04-25 21:14 55.95167 -3.36322 110 ft 7 kts 149°
2026-04-25 21:14 55.95135 -3.36224 111 ft 13 kts 108°
2026-04-25 21:14 55.95106 -3.36061 111 ft 12 kts 107°
2026-04-25 21:15 55.95074 -3.35929 111 ft 12 kts 118°
2026-04-25 21:15 55.95049 -3.35822 111 ft 8 kts 86°
2026-04-25 21:15 55.95056 -3.35698 111 ft 10 kts 117°
2026-04-25 21:15 55.95011 -3.35550 111 ft 17 kts 118°
2026-04-25 21:16 55.94953 -3.35362 111 ft 17 kts 119°
2026-04-25 21:16 55.94897 -3.35178 111 ft 16 kts 119°
2026-04-25 21:16 55.94847 -3.35017 111 ft 14 kts 118°
2026-04-25 21:16 55.94801 -3.34869 111 ft 12 kts 117°
2026-04-25 21:17 55.94761 -3.34788 111 ft 8 kts 109°
2026-04-25 21:17 55.94782 -3.34694 111 ft 12 kts 59°
2026-04-25 21:17 55.94826 -3.34563 111 ft 11 kts 58°
2026-04-25 21:17 55.94860 -3.34455 111 ft 10 kts 61°
2026-04-25 21:18 55.94874 -3.34342 111 ft 8 kts 80°
2026-04-25 21:18 55.94872 -3.34301 111 ft 0 kts 171°
2026-04-25 21:18 55.94865 -3.34330 111 ft 6 kts 278°
2026-04-25 21:18 55.94865 -3.34334 111 ft 0 kts 276°